Pacific Dawn — 3ECJ9 — position and weather

sailwx.info

Track history (hours):
 
Tides and Currents Weather Stations Pressure Air Temp Water Temp Dewpoint Dewpoint Depression Visibility Wind Speed Wind Dir Waves Ship Positions

Pacific Dawn

Last reported at 2015-Mar-24 19:18 UTC. Time now 2015-Apr-02 09:47 UTC.
Position N 01°16' E 104°12'.
Warning: this ship's position is 8 days out of date.

Length 239 m; draft 14.8 m.

Type: Ship. MMSI: 371361000.

Date/timePositionNaut miles runAvg speedWind from/ knotsBaromVisibWave heightAir tempDewpointWater temp
2015-Mar-24 19:18N 01°16' E 104°12'912.0
2015-Mar-24 18:33N 01°14' E 104°03'7 7.3
2015-Mar-24 17:33N 01°15' E 103°56'0 0.1
2015-Mar-24 16:20N 01°15' E 103°55'0 0.1
2015-Mar-24 15:14N 01°15' E 103°55'0 0.1
2015-Mar-24 14:32N 01°15' E 103°55'0 0.0
2015-Mar-24 13:26N 01°15' E 103°55'0 0.0
2015-Mar-24 12:32N 01°15' E 103°55'0 0.0
2015-Mar-24 11:32N 01°15' E 103°55'0 0.0
2015-Mar-24 10:32N 01°15' E 103°55'0 0.0
2015-Mar-24 09:08N 01°15' E 103°55'0 0.1
2015-Mar-24 08:20N 01°15' E 103°55'0 0.1
2015-Mar-24 07:26N 01°15' E 103°55'0 0.0
2015-Mar-24 06:32N 01°15' E 103°55'0 0.0
2015-Mar-24 05:20N 01°15' E 103°55'0 0.0
2015-Mar-24 04:20N 01°15' E 103°55'0 0.0
2015-Mar-24 03:32N 01°15' E 103°55'0 0.1
2015-Mar-24 02:32N 01°15' E 103°55'0 0.2
2015-Mar-24 01:14N 01°15' E 103°56'1 1.3
2015-Mar-24 00:33N 01°16' E 103°56'4 3.9
2015-Mar-23 23:33N 01°16' E 104°00'6 6.2
2015-Mar-23 22:33N 01°16' E 104°07'  
Track history (hours):
 
Tides and Currents Weather Stations Pressure Air Temp Water Temp Dewpoint Dewpoint Depression Visibility Wind Speed Wind Dir Waves Ship Positions

Pacific Dawn

Last reported at 2015-Mar-24 19:18 UTC. Time now 2015-Apr-02 09:47 UTC.
Position N 01°16' E 104°12'.
Warning: this ship's position is 8 days out of date.

Length 239 m; draft 14.8 m.

Type: Ship. MMSI: 371361000.

Date/timePositionNaut miles runAvg speedWind from/ knotsBaromVisibWave heightAir tempDewpointWater temp
2015-Mar-24 19:18N 01°16' E 104°12'912.0
2015-Mar-24 18:33N 01°14' E 104°03'7 7.3
2015-Mar-24 17:33N 01°15' E 103°56'0 0.1
2015-Mar-24 16:20N 01°15' E 103°55'0 0.1
2015-Mar-24 15:14N 01°15' E 103°55'0 0.1
2015-Mar-24 14:32N 01°15' E 103°55'0 0.0
2015-Mar-24 13:26N 01°15' E 103°55'0 0.0
2015-Mar-24 12:32N 01°15' E 103°55'0 0.0
2015-Mar-24 11:32N 01°15' E 103°55'0 0.0
2015-Mar-24 10:32N 01°15' E 103°55'0 0.0
2015-Mar-24 09:08N 01°15' E 103°55'0 0.1
2015-Mar-24 08:20N 01°15' E 103°55'0 0.1
2015-Mar-24 07:26N 01°15' E 103°55'0 0.0
2015-Mar-24 06:32N 01°15' E 103°55'0 0.0
2015-Mar-24 05:20N 01°15' E 103°55'0 0.0
2015-Mar-24 04:20N 01°15' E 103°55'0 0.0
2015-Mar-24 03:32N 01°15' E 103°55'0 0.1
2015-Mar-24 02:32N 01°15' E 103°55'0 0.2
2015-Mar-24 01:14N 01°15' E 103°56'1 1.3
2015-Mar-24 00:33N 01°16' E 103°56'4 3.9
2015-Mar-23 23:33N 01°16' E 104°00'6 6.2
2015-Mar-23 22:33N 01°16' E 104°07'  

Dump ship's entire track history